createdAt,value
2017-11-21T00:01:04.583Z,1013.1
2017-11-21T00:06:04.727Z,1013.1
2017-11-21T00:11:05.488Z,1013
2017-11-21T00:16:05.041Z,1013
2017-11-21T00:21:05.100Z,1013.1
2017-11-21T00:26:06.341Z,1013
2017-11-21T00:31:04.968Z,1013.1
2017-11-21T00:36:04.818Z,1013
2017-11-21T00:41:05.000Z,1013
2017-11-21T00:46:04.276Z,1012.9
2017-11-21T00:51:06.400Z,1012.9
2017-11-21T00:56:04.212Z,1013
2017-11-21T01:01:05.083Z,1012.9
2017-11-21T01:06:04.833Z,1013.1
2017-11-21T01:11:04.354Z,1013.1
2017-11-21T01:16:05.195Z,1013.1
2017-11-21T01:21:05.117Z,1013.1
2017-11-21T01:26:05.000Z,1013.1
2017-11-21T01:31:04.801Z,1013.2
2017-11-21T01:36:04.623Z,1013.2
2017-11-21T01:41:04.869Z,1013.2
2017-11-21T01:46:04.656Z,1013.2
2017-11-21T01:51:04.523Z,1013.3
2017-11-21T01:56:04.350Z,1013.3
2017-11-21T02:01:05.170Z,1013.3
2017-11-21T02:06:04.218Z,1013.3
2017-11-21T02:11:04.487Z,1013.3
2017-11-21T02:16:04.332Z,1013.3
2017-11-21T02:21:04.214Z,1013.2
2017-11-21T02:26:05.057Z,1013.3
2017-11-21T02:31:04.947Z,1013.2
2017-11-21T02:36:04.823Z,1013.2
2017-11-21T02:41:06.227Z,1013.3
2017-11-21T02:46:04.917Z,1013.2
2017-11-21T02:51:04.737Z,1013.3
2017-11-21T02:56:04.527Z,1013.3
2017-11-21T03:01:04.335Z,1013.3
2017-11-21T03:06:04.210Z,1013.3
2017-11-21T03:11:04.394Z,1013.3
2017-11-21T03:16:04.243Z,1013.3
2017-11-21T03:21:05.182Z,1013.2
2017-11-21T03:26:04.990Z,1013.2
2017-11-21T03:31:04.810Z,1013.3
2017-11-21T03:36:04.667Z,1013.3
2017-11-21T03:41:04.839Z,1013.3
2017-11-21T03:46:04.734Z,1013.3
2017-11-21T03:51:04.554Z,1013.4
2017-11-21T03:56:04.878Z,1013.3
2017-11-21T04:01:05.194Z,1013.3
2017-11-21T04:06:05.030Z,1013.4
2017-11-21T04:11:04.276Z,1013.4
2017-11-21T04:16:05.140Z,1013.3
2017-11-21T04:21:05.037Z,1013.4
2017-11-21T04:26:04.868Z,1013.3
2017-11-21T04:31:04.723Z,1013.4
2017-11-21T04:36:04.558Z,1013.4
2017-11-21T04:41:04.759Z,1013.4
2017-11-21T04:46:04.597Z,1013.5
2017-11-21T04:51:04.422Z,1013.5
2017-11-21T04:56:04.261Z,1013.4
2017-11-21T05:01:05.063Z,1013.4
2017-11-21T05:06:04.862Z,1013.4
2017-11-21T05:11:05.138Z,1013.2
2017-11-21T05:16:04.892Z,1013.3
2017-11-21T05:21:04.794Z,1013.3
2017-11-21T05:26:04.483Z,1013.4
2017-11-21T05:31:04.240Z,1013.4
2017-11-21T05:36:05.083Z,1013.4
2017-11-21T05:41:04.269Z,1013.5
2017-11-21T05:46:05.098Z,1013.5
2017-11-21T05:51:04.925Z,1013.4
2017-11-21T05:56:04.746Z,1013.4
2017-11-21T06:01:04.594Z,1013.3
2017-11-21T06:06:04.425Z,1013.4
2017-11-21T06:11:04.623Z,1013.4
2017-11-21T06:16:04.496Z,1013.4
2017-11-21T06:21:04.457Z,1013.4
2017-11-21T06:26:04.279Z,1013.4
2017-11-21T06:31:05.103Z,1013.4
2017-11-21T06:36:04.966Z,1013.5
2017-11-21T06:41:05.185Z,1013.5
2017-11-21T06:46:05.010Z,1013.6
2017-11-21T06:51:04.862Z,1013.6
2017-11-21T06:56:04.691Z,1013.6
2017-11-21T07:01:04.545Z,1013.6
2017-11-21T07:06:04.477Z,1013.6
2017-11-21T07:11:04.686Z,1013.6
2017-11-21T07:16:04.541Z,1013.7
2017-11-21T07:21:04.419Z,1013.8
2017-11-21T07:26:04.566Z,1013.7
2017-11-21T07:31:04.364Z,1013.8
2017-11-21T07:36:04.241Z,1013.8
2017-11-21T07:41:04.459Z,1013.8
2017-11-21T07:46:04.295Z,1013.9
2017-11-21T07:51:05.065Z,1013.8
2017-11-21T07:56:04.935Z,1013.8
2017-11-21T08:01:04.739Z,1013.8
2017-11-21T08:06:04.552Z,1013.9
2017-11-21T08:11:04.753Z,1013.8
2017-11-21T08:16:04.604Z,1013.8
2017-11-21T08:21:04.791Z,1013.8
2017-11-21T08:26:04.681Z,1013.8
2017-11-21T08:31:04.491Z,1014
2017-11-21T08:36:04.331Z,1013.9
2017-11-21T08:41:04.513Z,1013.9
2017-11-21T08:46:04.385Z,1013.9
2017-11-21T08:51:05.174Z,1014
2017-11-21T08:56:05.008Z,1014.1
2017-11-21T09:01:04.859Z,1014.2
2017-11-21T09:06:04.775Z,1014.2
2017-11-21T09:11:04.991Z,1014.4
2017-11-21T09:16:04.763Z,1014.3
2017-11-21T09:21:04.700Z,1014.3
2017-11-21T09:26:04.509Z,1014.4
2017-11-21T09:31:04.375Z,1014.3
2017-11-21T09:36:05.204Z,1014.1
2017-11-21T09:41:04.360Z,1014.1
2017-11-21T09:46:05.173Z,1014.2
2017-11-21T09:51:05.001Z,1014
2017-11-21T09:56:04.838Z,1014
2017-11-21T10:01:04.744Z,1014.1
2017-11-21T10:06:04.523Z,1014
2017-11-21T10:11:04.802Z,1014
2017-11-21T10:16:04.589Z,1013.9
2017-11-21T10:21:04.503Z,1013.9
2017-11-21T10:26:04.338Z,1013.8
2017-11-21T10:31:05.188Z,1013.9
2017-11-21T10:36:05.041Z,1013.8
2017-11-21T10:41:04.268Z,1013.8
2017-11-21T10:46:05.110Z,1013.8
2017-11-21T10:51:04.971Z,1013.8
2017-11-21T10:56:04.775Z,1013.7
2017-11-21T11:01:04.668Z,1013.6
2017-11-21T11:06:04.553Z,1013.7
2017-11-21T11:11:04.683Z,1013.7
2017-11-21T11:16:05.081Z,1013.7
2017-11-21T11:21:04.983Z,1013.7
2017-11-21T11:26:04.870Z,1013.6
2017-11-21T11:31:04.961Z,1013.7
2017-11-21T11:36:04.787Z,1013.7
2017-11-21T11:41:04.940Z,1013.6
2017-11-21T11:46:04.900Z,1013.6
2017-11-21T11:51:04.743Z,1013.6
2017-11-21T11:56:04.605Z,1013.5
2017-11-21T12:01:04.369Z,1013.5
2017-11-21T12:06:04.671Z,1013.5
2017-11-21T12:11:04.816Z,1013.5
2017-11-21T12:16:04.647Z,1013.5
2017-11-21T12:21:04.552Z,1013.5
2017-11-21T12:26:04.366Z,1013.3
2017-11-21T12:31:04.264Z,1013.3
2017-11-21T12:36:06.523Z,1013.3
2017-11-21T12:41:04.944Z,1013.4
2017-11-21T12:46:04.793Z,1013.3
2017-11-21T12:51:04.634Z,1013.3
2017-11-21T12:56:06.283Z,1013.3
2017-11-21T13:01:04.986Z,1013.2
2017-11-21T13:06:04.841Z,1013.3
2017-11-21T13:11:05.043Z,1013.3
2017-11-21T13:16:04.833Z,1013.3
2017-11-21T13:21:04.790Z,1013.3
2017-11-21T13:26:04.559Z,1013.3
2017-11-21T13:31:04.396Z,1013.4
2017-11-21T13:36:05.204Z,1013.4
2017-11-21T13:41:04.397Z,1013.2
2017-11-21T13:46:04.318Z,1013.3
2017-11-21T13:51:05.167Z,1013.2
2017-11-21T13:56:05.031Z,1013.2
2017-11-21T14:01:04.963Z,1013.2
2017-11-21T14:06:04.673Z,1013.3
2017-11-21T14:11:04.864Z,1013.3
2017-11-21T14:16:04.705Z,1013.3
2017-11-21T14:21:04.600Z,1013.3
2017-11-21T14:26:04.494Z,1013.5
2017-11-21T14:31:04.353Z,1013.4
2017-11-21T14:36:04.234Z,1013.5
2017-11-21T14:41:04.463Z,1013.4
2017-11-21T14:46:04.316Z,1013.4
2017-11-21T14:51:05.149Z,1013.3
2017-11-21T14:56:04.977Z,1013.3
2017-11-21T15:01:04.791Z,1013.3
2017-11-21T15:06:04.633Z,1013.4
2017-11-21T15:11:04.836Z,1013.3
2017-11-21T15:16:05.412Z,1013.3
2017-11-21T15:21:04.783Z,1013.4
2017-11-21T15:26:04.641Z,1013.5
2017-11-21T15:31:04.408Z,1013.5
2017-11-21T15:36:04.334Z,1013.3
2017-11-21T15:41:04.959Z,1013.4
2017-11-21T15:46:04.397Z,1013.5
2017-11-21T15:51:04.199Z,1013.4
2017-11-21T15:56:05.044Z,1013.3
2017-11-21T16:01:04.789Z,1013.3
2017-11-21T16:06:04.678Z,1013.3
2017-11-21T16:11:04.863Z,1013.3
2017-11-21T16:16:04.683Z,1013.3
2017-11-21T16:21:04.615Z,1013.4
2017-11-21T16:26:04.491Z,1013.5
2017-11-21T16:31:04.269Z,1013.5
2017-11-21T16:36:05.110Z,1013.6
2017-11-21T16:41:04.694Z,1013.5
2017-11-21T16:46:04.591Z,1013.5
2017-11-21T16:51:04.403Z,1013.4
2017-11-21T16:56:04.644Z,1013.4
2017-11-21T17:01:05.051Z,1013.3
2017-11-21T17:06:05.002Z,1013.4
2017-11-21T17:11:05.182Z,1013.5
2017-11-21T17:16:05.161Z,1013.6
2017-11-21T17:21:04.977Z,1013.5
2017-11-21T17:26:04.806Z,1013.4
2017-11-21T17:31:04.628Z,1013.3
2017-11-21T17:36:04.451Z,1013.3
2017-11-21T17:41:04.883Z,1013.5
2017-11-21T17:46:04.857Z,1013.5
2017-11-21T17:51:04.548Z,1013.3
2017-11-21T17:56:04.413Z,1013.3
2017-11-21T18:01:05.191Z,1013.3
2017-11-21T18:06:05.005Z,1013.3
2017-11-21T18:11:04.172Z,1013.2
2017-11-21T18:16:05.153Z,1013.2
2017-11-21T18:21:05.332Z,1013.4
2017-11-21T18:26:06.100Z,1013.3
2017-11-21T18:31:05.215Z,1013.3
2017-11-21T18:36:06.041Z,1013.2
2017-11-21T18:41:05.952Z,1013.2
2017-11-21T18:46:05.446Z,1013.2
2017-11-21T18:51:05.567Z,1013.3
2017-11-21T18:56:05.401Z,1013.3
2017-11-21T19:01:05.396Z,1013.3
2017-11-21T19:06:04.917Z,1013.3
2017-11-21T19:11:04.611Z,1013.2
2017-11-21T19:16:05.685Z,1013.2
2017-11-21T19:21:04.620Z,1013.2
2017-11-21T19:26:04.391Z,1013.2
2017-11-21T19:31:05.293Z,1013.2
2017-11-21T19:36:04.410Z,1013.2
2017-11-21T19:41:05.232Z,1013.1
2017-11-21T19:46:04.446Z,1013.2
2017-11-21T19:51:04.292Z,1013.2
2017-11-21T19:56:06.769Z,1013.2
2017-11-21T20:01:14.053Z,1013
2017-11-21T20:06:06.701Z,1012.9
2017-11-21T20:11:05.946Z,1012.9
2017-11-21T20:16:04.828Z,1013
2017-11-21T20:21:04.674Z,1012.9
2017-11-21T20:26:05.274Z,1012.9
2017-11-21T20:31:05.467Z,1012.8
2017-11-21T20:36:05.372Z,1012.8
2017-11-21T20:41:04.774Z,1012.8
2017-11-21T20:46:05.251Z,1012.9
2017-11-21T20:51:05.745Z,1012.8
2017-11-21T20:56:05.622Z,1012.8
2017-11-21T21:01:04.723Z,1012.9
2017-11-21T21:06:04.605Z,1012.8
2017-11-21T21:11:04.881Z,1012.6
2017-11-21T21:16:04.748Z,1012.8
2017-11-21T21:21:04.578Z,1012.9
2017-11-21T21:26:04.461Z,1012.8
2017-11-21T21:31:04.300Z,1012.7
2017-11-21T21:36:05.073Z,1012.7
2017-11-21T21:41:04.392Z,1012.6
2017-11-21T21:46:05.220Z,1012.6
2017-11-21T21:51:05.753Z,1012.4
2017-11-21T21:56:04.918Z,1012.4
2017-11-21T22:01:04.715Z,1012.5
2017-11-21T22:06:04.555Z,1012.5
2017-11-21T22:11:04.744Z,1012.5
2017-11-21T22:16:04.493Z,1012.4
2017-11-21T22:21:04.486Z,1012.3
2017-11-21T22:26:04.627Z,1012.4
2017-11-21T22:31:05.126Z,1012.3
2017-11-21T22:36:04.736Z,1012.1
2017-11-21T22:41:04.998Z,1012.2
2017-11-21T22:46:04.823Z,1012
2017-11-21T22:51:04.573Z,1012.1
2017-11-21T22:56:04.589Z,1011.9
2017-11-21T23:01:04.672Z,1012.1
2017-11-21T23:06:04.626Z,1012.1
2017-11-21T23:11:04.702Z,1012.1
2017-11-21T23:16:04.504Z,1012.1
2017-11-21T23:21:04.413Z,1011.9
2017-11-21T23:26:06.419Z,1011.9
2017-11-21T23:31:06.372Z,1011.8
2017-11-21T23:36:06.537Z,1011.7
2017-11-21T23:41:05.370Z,1011.8
2017-11-21T23:46:05.628Z,1011.8
2017-11-21T23:51:05.114Z,1011.8
2017-11-21T23:56:04.580Z,1011.7
